Time;durP1;ratioP1;P1;durP2;ratioP2;P2;SDS_P1;SDS_P2;PMS_P1;PMS_P2;Temp;Humidity;BMP_temperature;BMP_pressure;BME280_temperature;BME280_humidity;BME280_pressure;Samples;Min_cycle;Max_cycle;Signal;HPM_P1;HPM_P2
2023/03/16 00:04:48;;;;;;;32.13;13.60;;;;;;;;;;10420737;28;20049;-88
2023/03/16 00:09:49;;;;;;;31.03;13.97;;;;;;;;;;10428593;28;20151;-88
2023/03/16 00:14:50;;;;;;;29.97;13.33;;;;;;;;;;10442278;28;20029;-87
2023/03/16 00:19:56;;;;;;;27.67;13.77;;;;;;;;;;10464098;28;20044;-88
2023/03/16 00:24:57;;;;;;;31.85;13.90;;;;;;;;;;10463115;28;20044;-88
2023/03/16 00:29:58;;;;;;;33.47;13.90;;;;;;;;;;10444512;28;20075;-87
2023/03/16 00:35:00;;;;;;;31.50;14.13;;;;;;;;;;10456352;28;20037;-88
2023/03/16 00:40:02;;;;;;;33.10;13.73;;;;;;;;;;10428275;28;20112;-88
2023/03/16 00:45:04;;;;;;;29.30;13.07;;;;;;;;;;10461914;28;20032;-88
2023/03/16 00:50:06;;;;;;;33.90;13.20;;;;;;;;;;10430401;28;20029;-88
2023/03/16 00:55:07;;;;;;;28.23;13.20;;;;;;;;;;10440000;28;20450;-88
2023/03/16 01:00:12;;;;;;;28.47;13.77;;;;;;;;;;10468756;28;20643;-89
2023/03/16 01:05:13;;;;;;;30.17;13.83;;;;;;;;;;10435453;28;20025;-88
2023/03/16 01:10:15;;;;;;;31.70;14.03;;;;;;;;;;10461109;28;20063;-88
2023/03/16 01:15:16;;;;;;;30.73;13.90;;;;;;;;;;10445640;28;20048;-89
2023/03/16 01:20:18;;;;;;;30.03;14.00;;;;;;;;;;10435175;28;20139;-88
2023/03/16 01:25:20;;;;;;;36.13;14.20;;;;;;;;;;10461393;28;20032;-87
2023/03/16 01:30:21;;;;;;;28.50;13.23;;;;;;;;;;10452910;28;20409;-88
2023/03/16 01:35:22;;;;;;;26.83;14.03;;;;;;;;;;10437752;28;20018;-88
2023/03/16 01:40:23;;;;;;;28.53;14.67;;;;;;;;;;10453821;28;20178;-88
2023/03/16 01:45:42;;;;;;;36.87;14.97;;;;;;;;;;10455697;28;20124;-88
2023/03/16 01:50:43;;;;;;;36.50;17.40;;;;;;;;;;10448027;28;20028;-87
2023/03/16 01:55:45;;;;;;;37.33;16.43;;;;;;;;;;10483418;28;20025;-88
2023/03/16 02:00:47;;;;;;;45.77;20.60;;;;;;;;;;10440392;28;20079;-88
2023/03/16 02:05:57;;;;;;;57.40;28.30;;;;;;;;;;10444603;28;20029;-88
2023/03/16 02:10:58;;;;;;;58.83;26.00;;;;;;;;;;10449851;28;20049;-88
2023/03/16 02:15:59;;;;;;;66.57;30.40;;;;;;;;;;10443006;28;20040;-88
2023/03/16 02:21:00;;;;;;;52.93;24.47;;;;;;;;;;10460336;28;20048;-89
2023/03/16 02:26:22;;;;;;;59.07;24.73;;;;;;;;;;10475274;28;20219;-88
2023/03/16 02:31:23;;;;;;;47.60;23.50;;;;;;;;;;10448130;28;20036;-87
2023/03/16 02:36:24;;;;;;;44.50;21.53;;;;;;;;;;10452310;28;20035;-88
2023/03/16 02:41:26;;;;;;;48.57;21.80;;;;;;;;;;10456645;28;20070;-88
2023/03/16 02:46:28;;;;;;;56.80;24.23;;;;;;;;;;10457503;28;20131;-88
2023/03/16 02:51:31;;;;;;;54.13;23.30;;;;;;;;;;10464096;28;20036;-88
2023/03/16 02:56:32;;;;;;;49.23;22.40;;;;;;;;;;10447158;28;20048;-88
2023/03/16 03:01:33;;;;;;;40.00;20.23;;;;;;;;;;10452801;28;20045;-89
2023/03/16 03:06:35;;;;;;;44.27;19.60;;;;;;;;;;10432070;28;20029;-88
2023/03/16 03:11:36;;;;;;;47.77;19.40;;;;;;;;;;10428654;28;20407;-88
2023/03/16 03:16:37;;;;;;;43.53;21.20;;;;;;;;;;10430939;28;20025;-88
2023/03/16 03:21:38;;;;;;;42.43;19.43;;;;;;;;;;10471295;28;20484;-88
2023/03/16 03:26:39;;;;;;;45.63;20.57;;;;;;;;;;10461093;28;20040;-88
2023/03/16 03:31:40;;;;;;;47.03;21.00;;;;;;;;;;10447867;28;20032;-88
2023/03/16 03:36:41;;;;;;;50.57;22.20;;;;;;;;;;10462250;28;20107;-88
2023/03/16 03:41:42;;;;;;;53.20;23.43;;;;;;;;;;10438676;28;20136;-88
2023/03/16 03:46:43;;;;;;;61.27;25.40;;;;;;;;;;10440444;28;20047;-87
2023/03/16 03:51:44;;;;;;;55.73;27.47;;;;;;;;;;10451515;28;20036;-89
2023/03/16 03:56:45;;;;;;;54.93;26.23;;;;;;;;;;10436154;28;20124;-88
2023/03/16 04:01:47;;;;;;;53.80;24.43;;;;;;;;;;10440581;28;20034;-87
2023/03/16 04:06:50;;;;;;;53.57;25.50;;;;;;;;;;10452874;28;20032;-89
2023/03/16 04:11:51;;;;;;;52.67;26.73;;;;;;;;;;10441530;28;20567;-88
2023/03/16 04:17:03;;;;;;;56.30;26.20;;;;;;;;;;10435363;28;20031;-91
2023/03/16 04:22:04;;;;;;;48.13;22.53;;;;;;;;;;10467207;28;20040;-88
2023/03/16 04:27:05;;;;;;;50.97;22.10;;;;;;;;;;10457979;28;20036;-88
2023/03/16 04:32:07;;;;;;;44.67;20.20;;;;;;;;;;10469358;28;20040;-88
2023/03/16 04:37:08;;;;;;;81.90;36.13;;;;;;;;;;10446254;28;20157;-86
2023/03/16 04:42:11;;;;;;;91.07;39.17;;;;;;;;;;10470025;28;20415;-86
2023/03/16 04:47:12;;;;;;;102.47;40.53;;;;;;;;;;10446321;28;20029;-88
2023/03/16 04:52:13;;;;;;;72.17;32.70;;;;;;;;;;10442495;28;20051;-89
2023/03/16 04:57:18;;;;;;;67.07;32.17;;;;;;;;;;10431663;28;20126;-88
2023/03/16 05:02:19;;;;;;;70.67;33.37;;;;;;;;;;10460590;28;20100;-85
2023/03/16 05:07:20;;;;;;;71.20;32.57;;;;;;;;;;10458810;28;20387;-91
2023/03/16 05:12:24;;;;;;;49.17;25.40;;;;;;;;;;10437739;28;20195;-89
2023/03/16 05:17:25;;;;;;;54.77;25.53;;;;;;;;;;10470686;28;20551;-87
2023/03/16 05:22:29;;;;;;;60.70;26.33;;;;;;;;;;10456904;22;20083;-88
2023/03/16 05:27:30;;;;;;;56.30;26.10;;;;;;;;;;10444016;28;20645;-89
2023/03/16 05:32:31;;;;;;;60.50;25.30;;;;;;;;;;10446070;28;20028;-89
2023/03/16 05:37:33;;;;;;;51.93;21.57;;;;;;;;;;10433652;28;20570;-89
2023/03/16 05:42:34;;;;;;;59.50;24.80;;;;;;;;;;10445954;28;20041;-88
2023/03/16 05:47:36;;;;;;;63.77;23.80;;;;;;;;;;10438976;28;20123;-88
2023/03/16 05:52:37;;;;;;;58.33;25.00;;;;;;;;;;10445777;28;20099;-89
2023/03/16 05:57:39;;;;;;;56.93;25.23;;;;;;;;;;10445229;28;20033;-88
2023/03/16 06:02:40;;;;;;;75.57;29.93;;;;;;;;;;10445792;28;20151;-89
2023/03/16 06:07:41;;;;;;;162.43;58.93;;;;;;;;;;10445009;28;20029;-89
2023/03/16 06:12:42;;;;;;;89.30;38.70;;;;;;;;;;10445645;28;20036;-89
2023/03/16 06:17:43;;;;;;;61.97;28.40;;;;;;;;;;10444897;28;20028;-88
2023/03/16 06:22:44;;;;;;;59.70;28.10;;;;;;;;;;10443951;28;20071;-88
2023/03/16 06:27:47;;;;;;;54.50;24.27;;;;;;;;;;10435619;28;20108;-89
2023/03/16 06:32:48;;;;;;;47.37;23.43;;;;;;;;;;10427325;28;20032;-89
2023/03/16 06:37:50;;;;;;;59.40;26.73;;;;;;;;;;10444359;28;20654;-89
2023/03/16 06:42:51;;;;;;;46.60;22.43;;;;;;;;;;10444603;28;20048;-89
2023/03/16 06:47:52;;;;;;;53.87;25.20;;;;;;;;;;10403633;28;20029;-88
2023/03/16 06:52:53;;;;;;;60.03;27.13;;;;;;;;;;10430461;28;20083;-89
2023/03/16 06:57:54;;;;;;;51.00;25.13;;;;;;;;;;10439207;28;20025;-89
2023/03/16 07:02:55;;;;;;;47.03;23.37;;;;;;;;;;10420887;28;20060;-88
2023/03/16 07:07:57;;;;;;;45.43;21.47;;;;;;;;;;10443011;28;20499;-89
2023/03/16 07:12:58;;;;;;;52.10;22.83;;;;;;;;;;10443082;28;20036;-89
2023/03/16 07:17:59;;;;;;;48.63;22.13;;;;;;;;;;10442852;28;20074;-88
2023/03/16 07:23:00;;;;;;;49.57;22.67;;;;;;;;;;10441926;28;20091;-89
2023/03/16 07:28:02;;;;;;;55.43;22.70;;;;;;;;;;10442724;28;20047;-88
2023/03/16 07:33:04;;;;;;;32.73;16.10;;;;;;;;;;10442292;28;20055;-89
2023/03/16 07:38:05;;;;;;;47.00;19.83;;;;;;;;;;10442913;28;20031;-88
2023/03/16 07:43:06;;;;;;;44.77;19.17;;;;;;;;;;10442341;28;20475;-88
2023/03/16 07:48:07;;;;;;;32.50;15.40;;;;;;;;;;10444787;28;20105;-88
2023/03/16 07:53:09;;;;;;;33.93;15.77;;;;;;;;;;10429267;28;20024;-87
2023/03/16 07:58:10;;;;;;;31.50;14.80;;;;;;;;;;10443385;28;20052;-88
2023/03/16 08:03:12;;;;;;;30.93;14.47;;;;;;;;;;10443428;28;20049;-87
2023/03/16 08:08:14;;;;;;;27.93;12.83;;;;;;;;;;10450836;28;20120;-88
2023/03/16 08:13:15;;;;;;;25.20;12.40;;;;;;;;;;10451781;28;20033;-88
2023/03/16 08:18:16;;;;;;;26.13;12.70;;;;;;;;;;10451300;28;20457;-86
2023/03/16 08:23:17;;;;;;;35.90;13.83;;;;;;;;;;10449091;28;20098;-87
2023/03/16 08:28:20;;;;;;;32.00;13.67;;;;;;;;;;10449497;28;20072;-86
2023/03/16 08:33:21;;;;;;;62.53;35.20;;;;;;;;;;10450521;28;20045;-86
2023/03/16 08:38:22;;;;;;;19.43;10.10;;;;;;;;;;10436465;28;20033;-87
2023/03/16 08:43:25;;;;;;;16.43;8.27;;;;;;;;;;10423065;28;20028;-88
2023/03/16 08:48:27;;;;;;;16.20;7.70;;;;;;;;;;10450284;28;20017;-87
2023/03/16 08:53:29;;;;;;;17.37;8.07;;;;;;;;;;10449511;28;20584;-87
2023/03/16 08:58:31;;;;;;;16.73;8.40;;;;;;;;;;10448101;28;20031;-87
2023/03/16 09:03:33;;;;;;;20.43;10.03;;;;;;;;;;10448059;28;20590;-87
2023/03/16 09:08:35;;;;;;;19.60;9.27;;;;;;;;;;10447693;28;20025;-86
2023/03/16 09:13:37;;;;;;;20.33;9.57;;;;;;;;;;10407930;28;20028;-87
2023/03/16 09:18:38;;;;;;;13.03;6.70;;;;;;;;;;10445937;28;20033;-86
2023/03/16 09:23:41;;;;;;;14.40;7.50;;;;;;;;;;10447938;28;20051;-85
2023/03/16 09:28:42;;;;;;;20.07;8.83;;;;;;;;;;10429583;28;20427;-86
2023/03/16 09:33:43;;;;;;;20.10;7.40;;;;;;;;;;10438878;28;20128;-86
2023/03/16 09:38:44;;;;;;;14.40;7.20;;;;;;;;;;10428244;28;20029;-87
2023/03/16 09:43:45;;;;;;;15.90;5.43;;;;;;;;;;10426738;28;20090;-85
2023/03/16 09:48:47;;;;;;;12.33;5.03;;;;;;;;;;10445826;28;20124;-86
2023/03/16 09:53:50;;;;;;;12.37;5.93;;;;;;;;;;10432034;28;20044;-85
2023/03/16 09:58:51;;;;;;;10.57;5.63;;;;;;;;;;10445439;28;20503;-86
2023/03/16 10:04:04;;;;;;;10.53;3.80;;;;;;;;;;10434008;28;20124;-85
2023/03/16 10:09:21;;;;;;;10.97;5.03;;;;;;;;;;10396420;28;20030;-85
2023/03/16 10:14:29;;;;;;;10.40;4.23;;;;;;;;;;10446081;28;20543;-84
2023/03/16 10:19:30;;;;;;;12.10;4.73;;;;;;;;;;10446612;28;20119;-85
2023/03/16 10:24:34;;;;;;;8.03;3.30;;;;;;;;;;10445950;28;20049;-87
2023/03/16 10:29:36;;;;;;;6.50;3.07;;;;;;;;;;10443923;28;20071;-85
2023/03/16 10:34:37;;;;;;;7.33;3.47;;;;;;;;;;10444725;28;20476;-87
2023/03/16 10:39:41;;;;;;;14.57;6.13;;;;;;;;;;10443489;28;20037;-85
2023/03/16 10:44:43;;;;;;;16.30;7.10;;;;;;;;;;10444525;28;20766;-84
2023/03/16 10:49:48;;;;;;;8.13;4.20;;;;;;;;;;10443276;28;20637;-85
2023/03/16 10:54:50;;;;;;;13.93;5.53;;;;;;;;;;10442868;28;20488;-85
2023/03/16 10:59:56;;;;;;;13.17;6.00;;;;;;;;;;10444346;28;20684;-87
2023/03/16 11:04:57;;;;;;;8.02;3.85;;;;;;;;;;10443059;28;20056;-86
2023/03/16 11:09:58;;;;;;;5.20;2.97;;;;;;;;;;10444098;28;20041;-87
2023/03/16 11:15:19;;;;;;;4.57;2.20;;;;;;;;;;10443775;28;20091;-85
2023/03/16 11:20:27;;;;;;;4.20;2.53;;;;;;;;;;10441771;28;20820;-87
2023/03/16 11:25:32;;;;;;;7.77;2.77;;;;;;;;;;10430511;28;20033;-86
2023/03/16 11:30:36;;;;;;;5.43;2.38;;;;;;;;;;10443171;28;20017;-86
2023/03/16 11:35:49;;;;;;;8.33;4.03;;;;;;;;;;10443272;28;20028;-86
2023/03/16 11:40:56;;;;;;;11.10;3.10;;;;;;;;;;10442118;28;20029;-87
2023/03/16 11:46:16;;;;;;;6.57;2.40;;;;;;;;;;10443471;28;20524;-88
2023/03/16 11:51:40;;;;;;;4.03;2.03;;;;;;;;;;10420959;28;20075;-86
2023/03/16 11:56:50;;;;;;;4.67;2.03;;;;;;;;;;10441229;28;20633;-86
2023/03/16 12:02:12;;;;;;;5.00;2.17;;;;;;;;;;10442628;28;20155;-87
2023/03/16 12:07:33;;;;;;;8.17;1.90;;;;;;;;;;10443798;28;20094;-87
2023/03/16 12:12:41;;;;;;;6.03;2.77;;;;;;;;;;10442454;28;20028;-87
2023/03/16 12:17:44;;;;;;;10.97;4.60;;;;;;;;;;10443794;28;20028;-86
2023/03/16 12:22:48;;;;;;;8.33;2.47;;;;;;;;;;10441395;28;20057;-86
2023/03/16 12:27:52;;;;;;;6.63;2.60;;;;;;;;;;10441659;28;20488;-85
2023/03/16 12:32:58;;;;;;;11.90;4.90;;;;;;;;;;10442933;28;20039;-85
2023/03/16 12:38:12;;;;;;;7.43;3.70;;;;;;;;;;10441474;28;20075;-85
2023/03/16 12:43:32;;;;;;;11.50;4.97;;;;;;;;;;10442917;28;20120;-85
2023/03/16 12:48:36;;;;;;;6.63;2.80;;;;;;;;;;10442776;28;20071;-86
2023/03/16 12:53:45;;;;;;;5.90;2.30;;;;;;;;;;10447871;28;20118;-88
2023/03/16 12:58:48;;;;;;;7.93;2.77;;;;;;;;;;10449762;28;20692;-87
2023/03/16 13:03:50;;;;;;;6.97;2.17;;;;;;;;;;10450235;28;20087;-87
2023/03/16 13:08:55;;;;;;;6.80;2.00;;;;;;;;;;10449822;28;20075;-86
2023/03/16 13:13:59;;;;;;;3.50;1.77;;;;;;;;;;10449501;28;20519;-85
2023/03/16 13:19:00;;;;;;;8.47;1.90;;;;;;;;;;10444665;28;20028;-86
2023/03/16 13:24:16;;;;;;;8.53;3.90;;;;;;;;;;10410213;28;20593;-85
2023/03/16 13:29:17;;;;;;;;;;;;;;;;;;10443491;28;20049;-83
2023/03/16 13:34:32;;;;;;;8.63;2.27;;;;;;;;;;10420819;28;20292;-84
2023/03/16 13:39:33;;;;;;;9.70;4.07;;;;;;;;;;10409004;28;20033;-84
2023/03/16 13:44:39;;;;;;;6.90;2.97;;;;;;;;;;10413559;28;20037;-85
2023/03/16 13:49:45;;;;;;;9.90;3.70;;;;;;;;;;10421450;28;20031;-85
2023/03/16 13:54:46;;;;;;;;;;;;;;;;;;10417684;28;20030;-87
2023/03/16 13:59:48;;;;;;;11.83;3.40;;;;;;;;;;10440326;28;20466;-85
2023/03/16 14:04:49;;;;;;;4.93;1.73;;;;;;;;;;10430541;28;20507;-85
2023/03/16 14:09:51;;;;;;;4.50;1.87;;;;;;;;;;10431394;28;20044;-85
2023/03/16 14:14:55;;;;;;;5.30;2.00;;;;;;;;;;10433848;28;20407;-84
2023/03/16 14:20:01;;;;;;;4.23;1.83;;;;;;;;;;10432967;28;20404;-81
2023/03/16 14:25:04;;;;;;;5.13;2.50;;;;;;;;;;10432213;28;20036;-82
2023/03/16 14:30:23;;;;;;;6.20;1.90;;;;;;;;;;10444377;28;20079;-83
2023/03/16 14:35:31;;;;;;;4.63;1.73;;;;;;;;;;10428043;28;20052;-82
2023/03/16 14:40:32;;;;;;;5.33;1.90;;;;;;;;;;10431780;28;20039;-83
2023/03/16 14:45:34;;;;;;;4.97;1.70;;;;;;;;;;10438284;28;20057;-83
2023/03/16 14:50:36;;;;;;;5.93;1.77;;;;;;;;;;10424688;28;20518;-83
2023/03/16 14:55:37;;;;;;;2.57;1.30;;;;;;;;;;10421041;28;20036;-84
2023/03/16 15:00:40;;;;;;;6.13;2.40;;;;;;;;;;10425728;28;20083;-82
2023/03/16 15:05:43;;;;;;;10.30;3.47;;;;;;;;;;10422083;28;20536;-83
2023/03/16 15:10:45;;;;;;;11.67;4.60;;;;;;;;;;10420243;28;20032;-83
2023/03/16 15:15:47;;;;;;;73.07;36.23;;;;;;;;;;10406652;28;20022;-81
2023/03/16 15:20:50;;;;;;;24.30;10.13;;;;;;;;;;10410808;28;20085;-80
2023/03/16 15:25:57;;;;;;;8.33;3.03;;;;;;;;;;10416475;28;20064;-81
2023/03/16 15:30:59;;;;;;;33.03;14.90;;;;;;;;;;10389236;28;20037;-81
2023/03/16 15:36:02;;;;;;;32.67;13.30;;;;;;;;;;10393798;28;20026;-81
2023/03/16 15:41:03;;;;;;;17.77;5.97;;;;;;;;;;10397939;28;20049;-81
2023/03/16 15:46:05;;;;;;;6.53;1.87;;;;;;;;;;10410333;28;20074;-82
2023/03/16 15:51:07;;;;;;;8.37;2.17;;;;;;;;;;10394496;28;20026;-82
2023/03/16 15:56:12;;;;;;;13.03;5.13;;;;;;;;;;10401645;28;20051;-83
2023/03/16 16:01:20;;;;;;;14.40;5.47;;;;;;;;;;10395113;28;20493;-82
2023/03/16 16:06:21;;;;;;;17.43;7.47;;;;;;;;;;10396685;28;20040;-84
2023/03/16 16:11:25;;;;;;;21.93;10.17;;;;;;;;;;10426815;28;20049;-85
2023/03/16 16:16:27;;;;;;;13.93;7.10;;;;;;;;;;10398208;28;20033;-84
2023/03/16 16:21:30;;;;;;;21.57;10.40;;;;;;;;;;10407961;28;20091;-85
2023/03/16 16:26:34;;;;;;;33.20;16.80;;;;;;;;;;10421987;28;20115;-82
2023/03/16 16:31:35;;;;;;;22.97;11.13;;;;;;;;;;10419832;28;20041;-83
2023/03/16 16:36:36;;;;;;;11.37;3.97;;;;;;;;;;10420234;28;20039;-85
2023/03/16 16:41:38;;;;;;;11.23;5.50;;;;;;;;;;10424099;28;20053;-84
2023/03/16 16:46:40;;;;;;;11.40;3.90;;;;;;;;;;10416181;28;20079;-83
2023/03/16 16:51:42;;;;;;;7.13;3.77;;;;;;;;;;10418228;28;20125;-85
2023/03/16 16:56:44;;;;;;;11.50;4.37;;;;;;;;;;10425832;28;20037;-85
2023/03/16 17:01:52;;;;;;;12.70;4.10;;;;;;;;;;10404101;28;20041;-85
2023/03/16 17:06:57;;;;;;;13.73;5.07;;;;;;;;;;10414083;28;20368;-85
2023/03/16 17:11:58;;;;;;;19.20;6.50;;;;;;;;;;10413363;28;20131;-88
2023/03/16 17:17:07;;;;;;;16.17;6.43;;;;;;;;;;10400374;28;20045;-85
2023/03/16 17:22:20;;;;;;;17.87;7.07;;;;;;;;;;10416129;28;20141;-86
2023/03/16 17:27:26;;;;;;;30.00;12.77;;;;;;;;;;10410927;28;20542;-85
2023/03/16 17:32:27;;;;;;;34.87;16.43;;;;;;;;;;10410703;28;20038;-86
2023/03/16 17:37:28;;;;;;;49.80;22.37;;;;;;;;;;10410670;28;20041;-83
2023/03/16 17:42:30;;;;;;;65.90;27.37;;;;;;;;;;10419715;28;20052;-85
2023/03/16 17:47:37;;;;;;;92.50;38.40;;;;;;;;;;10416779;28;20021;-85
2023/03/16 17:52:38;;;;;;;94.90;38.57;;;;;;;;;;10414356;28;20042;-84
2023/03/16 17:57:39;;;;;;;60.37;24.30;;;;;;;;;;10419617;28;20658;-84
2023/03/16 18:02:40;;;;;;;35.30;15.63;;;;;;;;;;10429221;28;20107;-84
2023/03/16 18:07:41;;;;;;;30.37;14.43;;;;;;;;;;10409280;28;20036;-85
2023/03/16 18:12:42;;;;;;;34.27;12.93;;;;;;;;;;10423822;28;20029;-84
2023/03/16 18:17:44;;;;;;;56.00;20.80;;;;;;;;;;10426245;28;20501;-86
2023/03/16 18:22:46;;;;;;;93.33;29.63;;;;;;;;;;10434515;28;20132;-85
2023/03/16 18:27:48;;;;;;;77.53;28.80;;;;;;;;;;10404433;28;20596;-87
2023/03/16 18:32:50;;;;;;;75.93;29.00;;;;;;;;;;10405674;28;20148;-86
2023/03/16 18:37:54;;;;;;;81.57;28.50;;;;;;;;;;10417454;23;20057;-87
2023/03/16 18:42:55;;;;;;;66.60;24.47;;;;;;;;;;10402886;28;20119;-87
2023/03/16 18:47:56;;;;;;;75.17;25.53;;;;;;;;;;10401688;28;20029;-85
2023/03/16 18:52:58;;;;;;;72.97;24.70;;;;;;;;;;10403579;28;20068;-84
2023/03/16 18:57:59;;;;;;;59.90;20.90;;;;;;;;;;10404313;28;20033;-90
2023/03/16 19:03:02;;;;;;;53.73;19.83;;;;;;;;;;10401588;28;20049;-86
2023/03/16 19:08:03;;;;;;;46.87;17.40;;;;;;;;;;10402186;28;20155;-85
2023/03/16 19:13:13;;;;;;;39.30;17.63;;;;;;;;;;10397847;28;20674;-84
2023/03/16 19:18:14;;;;;;;57.63;24.87;;;;;;;;;;10430456;28;20091;-86
2023/03/16 19:23:35;;;;;;;72.87;28.97;;;;;;;;;;10399560;28;20042;-85
2023/03/16 19:28:38;;;;;;;59.77;25.17;;;;;;;;;;10412933;28;20095;-85
2023/03/16 19:33:39;;;;;;;53.70;23.17;;;;;;;;;;10399712;28;20041;-84
2023/03/16 19:38:40;;;;;;;54.20;22.67;;;;;;;;;;10386035;28;20102;-85
2023/03/16 19:43:42;;;;;;;62.30;24.20;;;;;;;;;;10401409;28;20504;-85
2023/03/16 19:48:43;;;;;;;93.30;36.57;;;;;;;;;;10391210;28;20542;-86
2023/03/16 19:53:44;;;;;;;96.10;39.53;;;;;;;;;;10399907;28;20512;-85
2023/03/16 19:58:47;;;;;;;110.33;46.33;;;;;;;;;;10394862;28;20097;-86
2023/03/16 20:03:49;;;;;;;97.47;40.70;;;;;;;;;;10419664;28;20051;-86
2023/03/16 20:08:50;;;;;;;79.40;35.40;;;;;;;;;;10418571;28;20038;-86
2023/03/16 20:13:51;;;;;;;87.03;36.27;;;;;;;;;;10440054;28;20034;-86
2023/03/16 20:18:54;;;;;;;89.53;35.10;;;;;;;;;;10429501;28;20488;-86
2023/03/16 20:23:55;;;;;;;100.63;39.20;;;;;;;;;;10412311;28;20037;-85
2023/03/16 20:28:56;;;;;;;221.23;97.40;;;;;;;;;;10447387;28;20040;-85
2023/03/16 20:33:58;;;;;;;300.33;124.80;;;;;;;;;;10398848;28;20127;-85
2023/03/16 20:38:59;;;;;;;301.13;124.27;;;;;;;;;;10433883;28;20057;-86
2023/03/16 20:44:00;;;;;;;252.53;104.57;;;;;;;;;;10433355;28;20139;-86
2023/03/16 20:49:02;;;;;;;218.33;91.93;;;;;;;;;;10440206;28;20041;-86
2023/03/16 20:54:03;;;;;;;170.67;72.43;;;;;;;;;;10419430;28;20037;-86
2023/03/16 20:59:04;;;;;;;166.13;70.50;;;;;;;;;;10431950;28;20041;-85
2023/03/16 21:04:06;;;;;;;160.90;73.30;;;;;;;;;;10421327;28;20785;-86
2023/03/16 21:09:07;;;;;;;168.97;79.53;;;;;;;;;;10434249;28;20139;-86
2023/03/16 21:14:12;;;;;;;157.60;72.40;;;;;;;;;;10439373;28;20112;-85
2023/03/16 21:19:15;;;;;;;166.77;74.22;;;;;;;;;;10420153;28;20040;-86
2023/03/16 21:24:16;;;;;;;177.23;82.20;;;;;;;;;;10457535;23;20131;-85
2023/03/16 21:29:20;;;;;;;172.03;78.30;;;;;;;;;;10447573;28;20048;-86
2023/03/16 21:34:29;;;;;;;172.07;79.80;;;;;;;;;;10450044;28;20049;-86
2023/03/16 21:39:30;;;;;;;161.97;73.83;;;;;;;;;;10446979;28;20033;-85
2023/03/16 21:44:31;;;;;;;151.97;68.07;;;;;;;;;;10434658;28;20044;-86
2023/03/16 21:49:32;;;;;;;144.43;61.53;;;;;;;;;;10461365;28;20039;-86
2023/03/16 21:54:33;;;;;;;150.40;66.70;;;;;;;;;;10454287;28;20025;-86
2023/03/16 21:59:35;;;;;;;146.03;61.93;;;;;;;;;;10456323;28;20464;-86
2023/03/16 22:04:36;;;;;;;167.87;67.07;;;;;;;;;;10460490;28;20041;-86
2023/03/16 22:09:38;;;;;;;226.47;85.93;;;;;;;;;;10444976;28;20511;-86
2023/03/16 22:14:39;;;;;;;241.70;92.87;;;;;;;;;;10471400;28;20021;-86
2023/03/16 22:19:40;;;;;;;244.80;98.40;;;;;;;;;;10451988;28;20102;-86
2023/03/16 22:24:41;;;;;;;219.73;91.70;;;;;;;;;;10466332;28;20060;-86
2023/03/16 22:29:43;;;;;;;209.83;90.90;;;;;;;;;;10458610;28;20420;-87
2023/03/16 22:34:52;;;;;;;197.67;83.30;;;;;;;;;;10450261;28;20476;-86
2023/03/16 22:39:53;;;;;;;144.10;59.67;;;;;;;;;;10456525;28;20040;-87
2023/03/16 22:44:55;;;;;;;141.83;58.40;;;;;;;;;;10459350;28;20083;-87
2023/03/16 22:49:56;;;;;;;148.47;62.33;;;;;;;;;;10436634;28;20033;-87
2023/03/16 22:54:58;;;;;;;151.03;64.13;;;;;;;;;;10445101;28;20037;-87
2023/03/16 23:00:05;;;;;;;127.33;56.33;;;;;;;;;;10446639;28;20043;-87
2023/03/16 23:05:20;;;;;;;134.30;53.80;;;;;;;;;;10468569;23;20138;-87
2023/03/16 23:10:24;;;;;;;129.83;54.73;;;;;;;;;;10419643;22;20409;-88
2023/03/16 23:15:27;;;;;;;127.80;56.13;;;;;;;;;;10399708;28;20480;-87
2023/03/16 23:20:29;;;;;;;124.20;55.93;;;;;;;;;;10392848;28;20035;-86
2023/03/16 23:25:30;;;;;;;134.27;54.37;;;;;;;;;;10397264;28;20607;-87
2023/03/16 23:30:32;;;;;;;125.57;54.13;;;;;;;;;;10392594;28;20087;-87
2023/03/16 23:35:33;;;;;;;145.13;58.50;;;;;;;;;;10394214;28;20480;-87
2023/03/16 23:40:35;;;;;;;145.33;59.17;;;;;;;;;;10400562;28;20045;-86
2023/03/16 23:45:41;;;;;;;146.00;62.87;;;;;;;;;;10388930;28;20029;-86
2023/03/16 23:50:43;;;;;;;151.53;60.20;;;;;;;;;;10396919;28;20049;-86
2023/03/16 23:55:44;;;;;;;144.17;58.40;;;;;;;;;;10396033;28;20343;-86
